Date,TemperatureHighF,TemperatureAvgF,TemperatureLowF,DewpointHighF,DewpointAvgF,DewpointLowF,HumidityHigh,HumidityAvg,HumidityLow,PressureMaxIn,PressureMinIn,WindSpeedMaxMPH,WindSpeedAvgMPH,GustSpeedMaxMPH,PrecipitationSumIn
2013-3-1,36,25,15,15,11,4,62,54,42,30.14,30.00,5,3,8,0.00
2013-3-2,38,21,6,10,3,-3,70,47,22,30.13,29.94,4,1,8,0.00
2013-3-3,37,26,16,7,2,-3,55,37,22,29.95,29.77,8,4,15,0.00
2013-3-4,27,25,23,18,11,-2,79,58,27,29.82,29.73,8,5,14,0.00
2013-3-5,33,26,20,24,19,13,80,74,62,30.08,29.76,4,3,8,0.01
2013-3-6,35,24,16,16,12,5,75,62,45,30.19,30.08,4,2,8,0.01
2013-3-7,38,27,7,17,11,-2,71,51,37,30.17,30.06,8,3,11,0.00
2013-3-8,44,32,20,27,20,11,75,63,48,30.10,29.85,7,3,11,0.04
2013-3-9,37,35,33,33,31,24,87,83,63,29.85,29.47,7,3,12,0.32
2013-3-10,35,33,30,31,26,22,88,76,69,29.73,29.55,8,4,14,0.01
2013-3-11,32,28,23,22,18,13,72,66,58,29.64,29.52,6,4,12,0.00
2013-3-12,31,25,20,15,10,4,70,54,34,29.95,29.59,10,5,16,0.00
2013-3-13,38,24,12,24,7,2,70,50,24,30.17,29.43,6,3,9,0.39
2013-3-14,48,33,24,27,21,12,80,61,43,29.77,29.54,6,2,8,0.04
2013-3-15,35,31,23,29,24,17,84,75,68,29.54,29.36,5,2,11,0.11
2013-3-16,30,22,12,17,7,-4,77,55,37,29.77,29.42,8,4,12,0.00
2013-3-17,30,18,3,12,-2,-11,54,41,28,29.80,29.42,11,4,15,0.00
2013-3-18,29,22,13,25,12,0,86,64,51,29.42,29.12,14,8,19,0.00
2013-3-19,26,14,6,1,-5,-14,57,42,26,29.71,29.33,11,7,17,0.00
2013-3-20,25,14,5,-1,-8,-14,47,37,28,29.73,29.64,10,6,16,0.00
2013-3-21,35,18,1,5,-2,-13,57,42,26,29.65,29.57,5,2,9,0.00
2013-3-22,44,25,7,100,5,-5,66,44,10,29.63,29.57,5,1,6,0.00
2013-3-23,44,29,16,16,11,4,67,48,25,29.93,29.59,2,1,6,0.14
2013-3-24,32,28,27,18,16,14,64,60,54,29.93,29.85,2,0,6,0.14
2013-3-25,45,35,21,18,15,10,62,44,29,29.99,29.88,4,2,14,0.00
2013-3-26,44,33,27,22,17,14,62,52,36,30.07,29.98,3,1,9,0.00
2013-3-27,50,36,23,22,14,10,65,43,23,30.11,30.06,3,1,8,0.00
2013-3-28,52,36,21,22,16,12,72,47,23,30.12,30.05,4,1,8,0.00
2013-3-29,54,38,28,34,26,16,75,61,41,30.06,29.85,4,1,12,0.00
2013-3-30,57,43,0,100,37,24,91,71,10,30.18,29.65,5,2,10,0.33
2013-3-31,41,35,24,30,19,2,83,56,24,30.12,29.83,9,4,16,0.00